Hawaiian Gardens, California
Current Conditions -  °F | °C
As of 4:58 PM on Friday 19 Dec 2014 (Local Time) from KSLI Reporting Station
Broken Clouds Broken Clouds  
Wind Chill: 61°   Ceiling: 22000
Heat Index: 61°   Visibility: 10mi
Dew Point: 51°   Wind: 6mph
Humidity: 72%   Direction: 290°WNW
Pressure: 30.15"   Gusts: NA
Location:  33.83°N, 118.08°W
Report Text: KSLI 200058Z 29005KT 10SM FEW180 BKN220 16/11 A3015 RMK AO2A SLP213 T01590108
Loading
Personal Weather Stations






























Interactive Weather Map New forecast layout! Learn more

10-Day Weather Forecast

Advertisements
Track Severe Weather on mobile